Time;durP1;ratioP1;P1;durP2;ratioP2;P2;SDS_P1;SDS_P2;PMS_P1;PMS_P2;Temp;Humidity;BMP_temperature;BMP_pressure;BME280_temperature;BME280_humidity;BME280_pressure;Samples;Min_cycle;Max_cycle;Signal;HPM_P1;HPM_P2
2022/09/26 00:01:26;;;;;;;7.57;1.67;;;;;;;20.13;44.23;100803.94;4954021;29;20027;-69
2022/09/26 00:04:01;;;;;;;5.03;1.60;;;;;;;20.11;44.15;100801.41;4953666;29;20055;-69
2022/09/26 00:06:27;;;;;;;1.88;1.60;;;;;;;20.11;44.57;100801.41;4937567;29;20027;-69
2022/09/26 00:08:53;;;;;;;2.60;1.88;;;;;;;20.10;44.09;100788.84;4940205;29;20389;-68
2022/09/26 00:11:25;;;;;;;3.60;1.70;;;;;;;20.06;44.46;100781.25;4941188;29;20027;-69
2022/09/26 00:13:52;;;;;;;3.08;2.15;;;;;;;20.05;44.26;100785.84;4958522;28;20030;-69
2022/09/26 00:16:18;;;;;;;5.40;1.98;;;;;;;20.07;44.54;100794.66;4957245;29;20114;-69
2022/09/26 00:18:47;;;;;;;3.17;1.80;;;;;;;20.06;44.48;100786.69;4941054;29;20498;-69
2022/09/26 00:21:13;;;;;;;4.70;2.20;;;;;;;20.04;44.64;100794.22;4941003;29;20039;-69
2022/09/26 00:23:40;;;;;;;2.90;2.15;;;;;;;20.05;44.50;100791.28;4925190;29;20058;-69
2022/09/26 00:26:06;;;;;;;2.97;2.03;;;;;;;20.02;44.71;100774.50;4941051;29;20094;-69
2022/09/26 00:28:32;;;;;;;7.13;2.50;;;;;;;19.98;44.63;100768.63;4940936;29;20101;-69
2022/09/26 00:31:03;;;;;;;9.13;2.67;;;;;;;19.98;44.69;100763.19;4956894;29;20034;-68
2022/09/26 00:33:28;;;;;;;3.72;2.10;;;;;;;19.96;44.68;100757.09;4940916;29;20473;-68
2022/09/26 00:35:55;;;;;;;2.72;2.25;;;;;;;19.97;44.57;100755.22;4956689;29;20027;-69
2022/09/26 00:38:21;;;;;;;4.53;2.17;;;;;;;20.00;44.49;100755.69;4940687;29;20023;-69
2022/09/26 00:40:47;;;;;;;4.97;2.75;;;;;;;19.99;44.75;100753.97;4957964;28;20473;-69
2022/09/26 00:43:29;;;;;;;3.75;2.60;;;;;;;20.02;44.87;100747.31;4956646;29;20027;-69
2022/09/26 00:45:58;;;;;;;3.67;2.28;;;;;;;20.01;45.24;100743.78;4956568;28;20125;-69
2022/09/26 00:48:24;;;;;;;6.35;2.55;;;;;;;20.00;44.91;100739.38;4940622;29;20035;-69
2022/09/26 00:50:49;;;;;;;4.80;2.60;;;;;;;20.00;44.90;100736.66;4956469;29;20039;-69
2022/09/26 00:53:18;;;;;;;7.97;2.40;;;;;;;20.01;44.85;100734.78;4956342;29;20114;-69
2022/09/26 00:55:49;;;;;;;3.58;2.63;;;;;;;20.00;45.56;100728.50;4940397;29;20031;-69
2022/09/26 00:58:21;;;;;;;5.22;2.90;;;;;;;20.01;45.25;100726.63;4940402;29;20027;-69
2022/09/26 01:00:48;;;;;;;5.95;2.92;;;;;;;19.99;44.64;100721.34;4940375;29;20027;-69
2022/09/26 01:03:15;;;;;;;4.53;3.00;;;;;;;19.98;45.00;100719.69;4956170;29;20051;-69
2022/09/26 01:05:41;;;;;;;3.53;2.00;;;;;;;19.97;45.15;100714.44;4940338;29;20054;-69
2022/09/26 01:08:08;;;;;;;4.88;3.13;;;;;;;19.96;45.39;100715.47;4940347;29;20031;-69
2022/09/26 01:10:35;;;;;;;4.80;2.92;;;;;;;19.93;45.11;100705.84;4939983;29;20101;-69
2022/09/26 01:13:01;;;;;;;4.72;2.92;;;;;;;19.95;45.14;100709.19;4925253;29;20038;-68
2022/09/26 01:15:26;;;;;;;3.10;2.78;;;;;;;19.95;44.92;100706.47;4957325;28;20026;-69
2022/09/26 01:17:51;;;;;;;3.05;2.13;;;;;;;19.96;45.41;100701.88;4955975;29;20114;-68
2022/09/26 01:20:40;;;;;;;3.33;2.45;;;;;;;19.93;44.85;100700.41;4957086;28;20481;-69
2022/09/26 01:23:21;;;;;;;5.05;2.30;;;;;;;19.88;45.10;100713.69;4955979;29;20015;-69
2022/09/26 01:26:14;;;;;;;6.03;2.53;;;;;;;19.83;45.19;100694.41;4956916;28;20109;-68
2022/09/26 01:28:52;;;;;;;4.40;2.58;;;;;;;19.81;45.53;100684.75;4939897;29;20031;-68
2022/09/26 01:31:29;;;;;;;2.15;1.98;;;;;;;19.81;45.14;100690.19;4956922;28;20171;-68
2022/09/26 01:34:09;;;;;;;5.68;2.20;;;;;;;19.80;45.71;100685.78;4955693;28;20027;-68
2022/09/26 01:36:41;;;;;;;3.17;2.30;;;;;;;19.80;45.79;100683.06;4956990;28;20023;-69
2022/09/26 01:39:25;;;;;;;6.68;2.38;;;;;;;19.78;45.50;100686.00;4956982;28;20023;-68
2022/09/26 01:42:02;;;;;;;4.72;2.65;;;;;;;19.77;45.50;100684.28;4939557;29;20515;-68
2022/09/26 01:44:47;;;;;;;4.93;1.98;;;;;;;19.73;44.94;100673.00;4955286;28;20058;-68
2022/09/26 01:47:12;;;;;;;4.88;2.08;;;;;;;19.74;45.55;100681.97;4939888;29;20496;-68
2022/09/26 01:49:47;;;;;;;6.63;2.28;;;;;;;19.71;45.19;100668.75;4956616;28;20147;-68
2022/09/26 01:52:26;;;;;;;3.78;2.28;;;;;;;19.72;45.55;100670.44;4955339;28;20027;-68
2022/09/26 01:55:16;;;;;;;3.38;2.17;;;;;;;19.70;45.56;100667.09;4956568;28;20532;-68
2022/09/26 01:58:13;;;;;;;4.55;2.08;;;;;;;19.66;45.49;100660.34;4934387;29;20035;-68
2022/09/26 02:00:41;;;;;;;4.65;2.17;;;;;;;19.62;45.73;100650.91;4955369;29;20495;-68
2022/09/26 02:03:10;;;;;;;3.25;1.90;;;;;;;19.59;45.28;100648.56;4955076;29;20393;-69
2022/09/26 02:05:43;;;;;;;6.38;2.63;;;;;;;19.53;45.88;100643.91;4955134;29;20023;-68
2022/09/26 02:08:10;;;;;;;;;;;;;;;19.52;45.54;100631.34;4939604;29;20074;-68
2022/09/26 02:10:39;;;;;;;2.90;1.83;;;;;;;19.49;45.78;100626.28;4939115;29;19917;-69
2022/09/26 02:13:13;;;;;;;6.95;2.28;;;;;;;19.50;46.21;100619.81;4939111;29;20027;-68
2022/09/26 02:15:39;;;;;;;3.63;2.30;;;;;;;19.50;45.59;100619.81;4955171;29;20036;-68
2022/09/26 02:18:21;;;;;;;6.10;2.10;;;;;;;19.49;46.04;100616.25;4938901;29;20020;-68
2022/09/26 02:21:10;;;;;;;4.35;2.13;;;;;;;19.48;45.76;100602.88;4954876;29;20020;-68
2022/09/26 02:23:36;;;;;;;2.88;1.73;;;;;;;19.48;45.94;100602.88;4956058;28;20063;-68
2022/09/26 02:26:01;;;;;;;3.40;2.38;;;;;;;19.47;45.63;100591.16;4938649;29;20469;-68
2022/09/26 02:28:27;;;;;;;5.95;2.03;;;;;;;19.46;46.10;100575.88;4954774;29;20027;-68
2022/09/26 02:30:53;;;;;;;3.15;1.98;;;;;;;19.51;45.86;100589.75;4938252;29;20030;-68
2022/09/26 02:33:18;;;;;;;4.22;2.13;;;;;;;19.53;45.75;100578.69;4954741;29;20109;-68
2022/09/26 02:35:56;;;;;;;5.20;2.05;;;;;;;19.51;45.66;100569.88;4955939;28;20023;-68
2022/09/26 02:38:25;;;;;;;4.10;1.77;;;;;;;19.49;46.16;100574.66;4954840;29;20023;-68
2022/09/26 02:41:21;;;;;;;6.78;3.05;;;;;;;19.46;45.81;100566.88;4938533;29;20117;-68
2022/09/26 02:43:52;;;;;;;5.25;1.90;;;;;;;19.45;45.81;100563.34;4955787;28;20035;-68
2022/09/26 02:46:37;;;;;;;5.07;2.10;;;;;;;19.45;46.15;100554.34;4955672;28;20027;-68
2022/09/26 02:49:30;;;;;;;3.58;2.10;;;;;;;19.45;46.12;100549.78;4955603;28;20477;-68
2022/09/26 02:52:33;;;;;;;2.58;1.90;;;;;;;19.43;45.90;100540.94;4955576;28;20023;-68
2022/09/26 02:55:10;;;;;;;6.23;2.93;;;;;;;19.39;46.10;100531.53;4954505;28;20019;-69
2022/09/26 02:57:35;;;;;;;9.38;2.30;;;;;;;19.38;46.05;100528.94;4954295;28;20031;-69
2022/09/26 03:00:06;;;;;;;2.33;1.95;;;;;;;19.32;45.85;100516.16;4954249;28;20070;-70
2022/09/26 03:02:36;;;;;;;4.03;2.42;;;;;;;19.28;45.85;100509.44;4954309;29;20027;-70
2022/09/26 03:05:06;;;;;;;8.38;2.63;;;;;;;19.27;45.98;100513.16;4954013;29;20397;-70
2022/09/26 03:07:55;;;;;;;3.08;2.00;;;;;;;19.22;45.52;100499.31;4938397;29;20393;-70
2022/09/26 03:10:21;;;;;;;7.78;2.55;;;;;;;19.18;45.73;100502.44;4938357;29;20485;-70
2022/09/26 03:12:48;;;;;;;4.70;3.00;;;;;;;19.16;45.71;100496.34;4954373;29;20069;-70
2022/09/26 03:15:14;;;;;;;8.27;2.80;;;;;;;19.16;45.65;100490.94;4938212;29;20086;-68
2022/09/26 03:17:59;;;;;;;4.10;2.03;;;;;;;19.14;46.06;100487.56;4922413;29;20086;-68
2022/09/26 03:20:25;;;;;;;7.18;3.50;;;;;;;19.14;45.48;100487.56;4937600;29;20062;-70
2022/09/26 03:22:50;;;;;;;8.93;3.35;;;;;;;19.09;45.86;100479.16;4954144;29;20031;-70
2022/09/26 03:25:20;;;;;;;6.38;3.00;;;;;;;19.11;46.22;100477.09;4953964;29;20019;-68
2022/09/26 03:27:46;;;;;;;7.00;2.85;;;;;;;19.14;46.53;100465.00;4954059;29;20031;-70
2022/09/26 03:30:13;;;;;;;7.55;3.65;;;;;;;19.10;46.52;100459.09;4954123;29;20497;-70
2022/09/26 03:32:39;;;;;;;8.25;3.40;;;;;;;19.12;45.88;100462.47;4954440;29;20023;-67
2022/09/26 03:35:05;;;;;;;7.53;3.10;;;;;;;19.14;46.36;100454.13;4954443;29;20370;-70
2022/09/26 03:37:33;;;;;;;12.40;3.80;;;;;;;19.12;46.25;100458.94;4954001;29;20078;-70
2022/09/26 03:40:03;;;;;;;7.05;3.40;;;;;;;19.11;45.73;100468.94;4953904;29;20066;-68
2022/09/26 03:42:32;;;;;;;6.47;2.85;;;;;;;19.14;45.75;100457.69;4938604;29;20122;-67
2022/09/26 03:44:58;;;;;;;6.55;3.05;;;;;;;19.14;46.04;100448.72;4958770;28;20036;-70
2022/09/26 03:47:23;;;;;;;7.95;2.17;;;;;;;19.16;46.29;100446.63;4941873;29;20031;-67
2022/09/26 03:49:49;;;;;;;9.45;3.15;;;;;;;19.13;45.82;100442.44;4958716;28;20042;-68
2022/09/26 03:52:14;;;;;;;9.93;2.88;;;;;;;19.15;46.03;100448.50;4941591;29;20035;-67
2022/09/26 03:54:40;;;;;;;8.07;3.67;;;;;;;19.17;46.17;100449.16;4958802;28;20023;-68
2022/09/26 03:57:05;;;;;;;12.63;3.08;;;;;;;19.17;46.07;100442.91;4941652;29;20038;-68
2022/09/26 03:59:31;;;;;;;7.07;2.85;;;;;;;19.17;46.51;100440.19;4926037;29;20085;-68
2022/09/26 04:01:56;;;;;;;4.55;2.38;;;;;;;19.17;45.98;100438.31;4957342;28;20404;-68
2022/09/26 04:04:21;;;;;;;6.28;2.85;;;;;;;19.16;45.60;100425.75;4957129;29;20063;-68
2022/09/26 04:06:49;;;;;;;8.25;3.05;;;;;;;19.14;45.99;100422.41;4957327;28;20516;-69
2022/09/26 04:09:16;;;;;;;10.60;2.38;;;;;;;19.12;45.75;100418.19;4957321;29;20031;-68
2022/09/26 04:11:42;;;;;;;3.58;1.75;;;;;;;19.07;46.29;100416.06;4957377;29;20027;-68
2022/09/26 04:14:08;;;;;;;10.77;3.08;;;;;;;19.07;46.07;100416.06;4941232;29;20059;-68
2022/09/26 04:16:35;;;;;;;5.63;2.15;;;;;;;19.05;46.07;100401.00;4957270;29;20023;-68
2022/09/26 04:19:01;;;;;;;7.85;2.17;;;;;;;19.04;46.10;100397.44;4941352;29;20444;-69
2022/09/26 04:21:27;;;;;;;6.60;1.85;;;;;;;19.03;45.98;100393.06;4941034;29;20049;-68
2022/09/26 04:23:53;;;;;;;3.80;1.85;;;;;;;19.02;45.71;100383.22;4940942;29;20035;-68
2022/09/26 04:26:19;;;;;;;6.47;2.17;;;;;;;19.05;46.03;100381.97;4958145;28;20019;-68
2022/09/26 04:28:45;;;;;;;5.68;2.60;;;;;;;19.04;45.82;100367.56;4957096;29;20031;-68
2022/09/26 04:31:11;;;;;;;6.25;1.73;;;;;;;19.02;45.44;100364.22;4940774;29;20035;-68
2022/09/26 04:33:38;;;;;;;4.38;1.98;;;;;;;19.00;45.69;100360.88;4940884;29;20031;-68
2022/09/26 04:36:06;;;;;;;5.45;1.50;;;;;;;19.00;45.47;100358.16;4941014;29;20034;-68
2022/09/26 04:38:32;;;;;;;8.48;1.42;;;;;;;18.97;45.63;100350.41;4956838;29;20055;-68
2022/09/26 04:41:15;;;;;;;9.73;1.90;;;;;;;18.99;45.79;100342.88;4957897;28;20497;-68
2022/09/26 04:43:41;;;;;;;4.88;1.58;;;;;;;18.96;46.16;100329.69;4940650;29;20485;-68
2022/09/26 04:46:08;;;;;;;3.42;1.85;;;;;;;18.98;46.11;100335.75;4957872;28;20110;-68
2022/09/26 04:48:33;;;;;;;3.25;1.77;;;;;;;18.99;45.80;100325.75;4940620;29;20128;-68
2022/09/26 04:50:58;;;;;;;4.57;1.92;;;;;;;18.99;45.66;100321.16;4956680;29;20146;-68
2022/09/26 04:53:24;;;;;;;2.72;1.60;;;;;;;19.02;45.31;100326.22;4939981;29;20042;-68
2022/09/26 04:55:53;;;;;;;2.63;1.75;;;;;;;19.02;45.21;100314.50;4956458;29;20031;-68
2022/09/26 04:58:18;;;;;;;2.28;1.60;;;;;;;18.99;45.61;100304.88;4940838;29;20027;-68
2022/09/26 05:00:48;;;;;;;6.22;1.60;;;;;;;19.00;45.75;100306.56;4940441;29;20054;-68
2022/09/26 05:03:14;;;;;;;3.92;1.30;;;;;;;18.98;45.46;100297.75;4940914;29;20047;-68
2022/09/26 05:05:40;;;;;;;5.18;1.30;;;;;;;18.98;45.19;100295.03;4956292;29;20031;-68
2022/09/26 05:08:06;;;;;;;5.15;1.50;;;;;;;18.96;45.26;100290.84;4956386;29;20031;-68
2022/09/26 05:10:32;;;;;;;2.95;1.30;;;;;;;18.95;45.59;100284.59;4956341;29;20508;-68
2022/09/26 05:12:58;;;;;;;3.13;1.30;;;;;;;19.00;45.58;100284.84;4956142;29;20023;-69
2022/09/26 05:15:24;;;;;;;11.57;1.60;;;;;;;18.99;45.09;100277.72;4957342;28;20098;-69
2022/09/26 05:17:58;;;;;;;2.75;1.55;;;;;;;18.99;45.47;100277.72;4956157;29;20473;-68
2022/09/26 05:20:27;;;;;;;3.67;1.40;;;;;;;19.00;45.31;100279.41;4956028;28;20069;-69
2022/09/26 05:22:56;;;;;;;7.05;1.63;;;;;;;19.00;45.62;100279.41;4956104;29;20102;-69
2022/09/26 05:28:05;;;;;;;3.38;1.73;;;;;;;19.00;45.32;100274.00;4942569;29;20083;-69
2022/09/26 05:30:31;;;;;;;3.15;1.85;;;;;;;19.04;45.46;100274.41;4939839;29;20031;-69
2022/09/26 05:32:57;;;;;;;3.03;1.38;;;;;;;19.04;45.39;100268.97;4957001;28;20113;-69
2022/09/26 05:35:22;;;;;;;5.50;1.65;;;;;;;19.03;45.82;100261.91;4939982;29;20034;-69
2022/09/26 05:37:48;;;;;;;6.82;1.67;;;;;;;19.04;45.03;100258.97;4939729;29;20382;-69
2022/09/26 05:43:03;;;;;;;3.53;1.50;;;;;;;19.08;45.62;100254.84;4955807;29;20458;-68
2022/09/26 05:45:30;;;;;;;1.50;1.15;;;;;;;19.10;45.41;100258.19;4957125;28;20118;-68
2022/09/26 05:47:55;;;;;;;1.92;1.05;;;;;;;19.09;45.13;100251.09;4956599;28;20031;-68
2022/09/26 05:50:23;;;;;;;5.35;1.33;;;;;;;19.06;45.47;100235.19;4955324;28;20031;-69
2022/09/26 05:52:49;;;;;;;2.88;1.48;;;;;;;19.03;45.10;100232.03;4955592;29;20031;-69
2022/09/26 05:55:15;;;;;;;3.13;1.20;;;;;;;19.06;45.22;100228.94;4923582;29;20086;-68
2022/09/26 05:57:52;;;;;;;2.28;1.83;;;;;;;19.07;45.06;100217.84;4923698;29;20122;-68
2022/09/26 06:00:17;;;;;;;3.15;1.27;;;;;;;19.01;44.92;100209.69;4939400;29;20023;-68
2022/09/26 06:02:42;;;;;;;3.63;1.48;;;;;;;19.05;45.13;100216.38;4955335;29;20027;-68
2022/09/26 06:05:08;;;;;;;2.80;1.13;;;;;;;19.00;45.35;100208.00;4938254;29;20415;-68
2022/09/26 06:07:33;;;;;;;5.18;1.00;;;;;;;19.03;45.30;100208.44;4939541;29;20089;-68
2022/09/26 06:09:58;;;;;;;1.25;1.10;;;;;;;18.99;45.60;100201.72;4955302;28;20042;-68
2022/09/26 06:12:27;;;;;;;2.03;1.30;;;;;;;19.02;45.32;100195.91;4956282;28;20058;-68
2022/09/26 06:14:52;;;;;;;1.92;1.23;;;;;;;19.01;45.48;100202.34;4923132;29;20065;-68
2022/09/26 06:17:18;;;;;;;5.72;1.20;;;;;;;19.00;44.91;100192.56;4955083;29;20456;-70
2022/09/26 06:19:44;;;;;;;2.58;1.17;;;;;;;19.02;45.21;100195.91;4939161;29;20035;-68
2022/09/26 06:22:09;;;;;;;3.47;0.90;;;;;;;19.04;45.55;100182.97;4954837;29;20057;-68
2022/09/26 06:24:35;;;;;;;3.08;0.88;;;;;;;19.02;45.41;100176.06;4955832;28;20031;-67
2022/09/26 06:27:00;;;;;;;5.53;2.08;;;;;;;19.04;44.74;100180.25;4938683;29;20027;-68
2022/09/26 06:29:25;;;;;;;1.77;0.90;;;;;;;19.03;44.89;100173.16;4955908;28;20090;-68
2022/09/26 06:31:51;;;;;;;2.17;0.80;;;;;;;19.05;45.52;100183.78;4954649;29;20031;-68
2022/09/26 06:34:16;;;;;;;1.42;0.90;;;;;;;19.04;45.31;100182.09;4955969;28;20038;-68
2022/09/26 06:36:42;;;;;;;4.32;0.90;;;;;;;19.03;45.59;100175.88;4954710;29;20034;-69
2022/09/26 06:39:07;;;;;;;5.57;1.15;;;;;;;18.96;45.57;100172.25;4938661;29;20093;-68
2022/09/26 06:41:34;;;;;;;1.10;0.82;;;;;;;18.92;45.66;100171.00;4938495;29;20031;-68
2022/09/26 06:44:01;;;;;;;1.73;0.70;;;;;;;18.92;45.54;100173.72;4954521;29;20082;-68
2022/09/26 06:46:27;;;;;;;3.58;1.10;;;;;;;18.93;45.66;100169.09;4938823;29;20027;-68
2022/09/26 06:48:52;;;;;;;4.50;0.85;;;;;;;18.91;45.16;100161.16;4954502;29;20031;-69
2022/09/26 06:51:18;;;;;;;5.43;0.75;;;;;;;18.92;46.42;100162.00;4954363;28;20054;-68
2022/09/26 06:53:44;;;;;;;2.72;0.77;;;;;;;18.89;45.65;100152.41;4938459;29;20126;-68
2022/09/26 06:56:10;;;;;;;1.30;0.60;;;;;;;18.86;45.87;100149.22;4938450;29;20032;-68
2022/09/26 06:58:36;;;;;;;3.90;1.00;;;;;;;18.82;45.81;100135.22;4922427;29;20038;-68
2022/09/26 07:01:02;;;;;;;4.65;1.05;;;;;;;18.85;45.73;100144.81;4954402;29;20393;-68
2022/09/26 07:03:28;;;;;;;3.50;1.10;;;;;;;18.87;45.53;100146.31;4938178;29;20047;-69
2022/09/26 07:05:55;;;;;;;5.28;0.98;;;;;;;18.84;46.17;100138.59;4954496;29;20110;-69
2022/09/26 07:08:20;;;;;;;3.92;0.57;;;;;;;18.84;45.98;100127.72;4938359;29;20023;-69
2022/09/26 07:10:46;;;;;;;2.83;0.70;;;;;;;18.85;46.16;100126.69;4954135;29;20082;-69
2022/09/26 07:13:14;;;;;;;5.10;0.85;;;;;;;18.84;45.86;100125.03;4938171;29;20035;-69
2022/09/26 07:15:43;;;;;;;3.20;1.05;;;;;;;18.85;45.69;100113.09;4938492;29;20034;-69
2022/09/26 07:18:09;;;;;;;3.80;1.00;;;;;;;18.83;45.88;100111.63;4937993;29;20473;-69
2022/09/26 07:20:45;;;;;;;1.35;0.82;;;;;;;18.80;45.49;100099.31;4938172;29;20106;-69
2022/09/26 07:23:11;;;;;;;3.00;0.82;;;;;;;18.76;45.76;100103.44;4954262;29;20031;-69
2022/09/26 07:25:40;;;;;;;1.67;0.77;;;;;;;18.76;45.24;100086.34;4938017;29;20078;-69
2022/09/26 07:28:06;;;;;;;3.80;0.70;;;;;;;18.74;46.38;100086.53;4955301;28;20062;-69
2022/09/26 07:30:32;;;;;;;1.65;0.93;;;;;;;18.71;46.44;100084.22;4954099;29;20023;-69
2022/09/26 07:33:01;;;;;;;4.70;1.30;;;;;;;18.65;46.04;100070.63;4938096;29;20547;-69
2022/09/26 07:35:27;;;;;;;2.60;1.02;;;;;;;18.59;46.66;100064.13;4938525;29;20027;-68
2022/09/26 07:37:52;;;;;;;6.32;0.70;;;;;;;18.59;46.08;100074.97;4937880;29;20477;-68
2022/09/26 07:40:20;;;;;;;2.28;0.85;;;;;;;18.57;46.21;100066.19;4938251;29;20031;-69
2022/09/26 07:42:46;;;;;;;2.70;0.82;;;;;;;18.56;46.39;100069.94;4922770;29;20477;-69
2022/09/26 07:45:11;;;;;;;3.03;0.80;;;;;;;18.58;46.32;100067.88;4921928;29;20032;-69
2022/09/26 07:50:21;;;;;;;3.22;0.93;;;;;;;18.61;45.98;100056.63;4954068;29;20043;-69
2022/09/26 07:52:49;;;;;;;3.50;0.90;;;;;;;18.67;46.39;100060.41;4953872;29;20027;-69
2022/09/26 07:55:19;;;;;;;2.65;0.75;;;;;;;18.66;46.19;100056.00;4954031;29;20038;-69
2022/09/26 07:57:45;;;;;;;0.75;0.73;;;;;;;18.67;46.82;100054.97;4938093;29;20031;-69
2022/09/26 08:00:16;;;;;;;0.82;0.60;;;;;;;18.70;46.45;100055.44;4953845;29;20046;-69
2022/09/26 08:02:44;;;;;;;1.05;0.88;;;;;;;18.67;46.31;100050.41;4953871;29;20034;-69
2022/09/26 08:05:20;;;;;;;1.13;0.70;;;;;;;18.71;46.40;100051.66;4938072;29;20068;-69
2022/09/26 08:07:46;;;;;;;2.25;0.63;;;;;;;18.77;46.42;100040.00;4953799;29;20050;-69
2022/09/26 08:10:20;;;;;;;3.25;0.70;;;;;;;18.81;46.38;100035.88;4937903;29;20046;-69
2022/09/26 08:12:46;;;;;;;0.55;0.55;;;;;;;18.87;46.61;100040.47;4953709;29;20031;-69
2022/09/26 08:15:12;;;;;;;3.70;0.85;;;;;;;18.89;46.36;100027.53;4937709;29;20035;-68
2022/09/26 08:17:38;;;;;;;3.85;1.45;;;;;;;18.93;46.86;100030.66;4953618;29;20027;-70
2022/09/26 08:20:04;;;;;;;4.78;1.30;;;;;;;18.95;47.00;100026.75;4937726;29;20122;-70
2022/09/26 08:22:29;;;;;;;1.90;0.60;;;;;;;18.94;46.72;100019.63;4953527;29;20070;-70
2022/09/26 08:24:55;;;;;;;3.70;0.98;;;;;;;19.00;46.53;100035.09;4954721;28;20036;-70
2022/09/26 08:27:21;;;;;;;1.38;0.65;;;;;;;19.03;46.91;100017.56;4921952;29;20031;-70
2022/09/26 08:29:48;;;;;;;1.33;0.90;;;;;;;19.03;46.66;100018.41;4939922;29;20042;-70
2022/09/26 08:32:18;;;;;;;3.05;0.80;;;;;;;19.10;46.57;100019.25;4941205;29;20508;-70
2022/09/26 08:34:44;;;;;;;2.00;1.00;;;;;;;19.17;46.70;100019.28;4940910;29;20063;-70
2022/09/26 08:37:09;;;;;;;1.10;0.57;;;;;;;19.22;46.87;100010.53;4940789;29;20027;-70
2022/09/26 08:39:35;;;;;;;4.15;0.90;;;;;;;19.34;46.37;100008.88;4940764;29;20042;-70
2022/09/26 08:42:30;;;;;;;3.33;1.00;;;;;;;19.47;46.73;100001.63;4940750;29;20027;-70
2022/09/26 08:45:01;;;;;;;3.10;0.85;;;;;;;19.63;46.61;99997.66;4956711;28;20122;-70
2022/09/26 08:47:42;;;;;;;1.67;0.95;;;;;;;19.75;46.08;99990.56;4956739;28;20397;-70
2022/09/26 08:50:10;;;;;;;1.98;0.70;;;;;;;19.89;46.14;99985.97;4956714;29;20027;-70
2022/09/26 08:53:14;;;;;;;4.45;1.58;;;;;;;19.96;46.17;99995.78;4957735;28;20050;-70
2022/09/26 08:55:42;;;;;;;2.80;1.00;;;;;;;20.02;46.27;99992.22;4953140;28;20425;-70
2022/09/26 08:58:21;;;;;;;1.35;0.80;;;;;;;20.13;46.04;99977.13;4940349;29;20031;-70
2022/09/26 09:00:50;;;;;;;2.72;0.63;;;;;;;20.22;45.96;99971.28;4940427;29;20429;-71
2022/09/26 09:03:35;;;;;;;5.70;1.08;;;;;;;20.38;46.21;99975.44;5218788;23;20054;-66
2022/09/26 09:06:11;;;;;;;4.30;1.02;;;;;;;20.41;45.89;99968.78;4955964;29;20019;-65
2022/09/26 09:08:39;;;;;;;0.80;0.70;;;;;;;20.46;45.99;99972.53;4924331;29;20023;-66
2022/09/26 09:11:19;;;;;;;3.05;0.68;;;;;;;20.54;45.54;99968.72;4940054;29;20051;-65
2022/09/26 09:14:13;;;;;;;2.50;0.93;;;;;;;20.57;45.40;99960.97;4955854;28;20035;-66
2022/09/26 09:16:52;;;;;;;2.92;0.70;;;;;;;20.58;45.77;99959.06;4955829;29;20050;-66
2022/09/26 09:19:39;;;;;;;2.95;0.98;;;;;;;20.57;45.80;99950.09;4957083;28;20544;-66
2022/09/26 09:22:45;;;;;;;5.15;0.70;;;;;;;20.58;45.95;99934.56;4956969;28;20027;-66
2022/09/26 09:25:31;;;;;;;1.90;0.73;;;;;;;20.58;45.33;99929.97;4955361;29;20091;-66
2022/09/26 09:28:21;;;;;;;5.22;0.75;;;;;;;20.66;45.90;99928.91;4955744;29;20031;-67
2022/09/26 09:30:50;;;;;;;8.07;0.82;;;;;;;20.71;45.38;99932.66;4955496;28;20031;-66
2022/09/26 09:33:22;;;;;;;1.65;0.60;;;;;;;20.76;45.49;99923.81;4939598;29;20114;-66
2022/09/26 09:36:09;;;;;;;5.60;0.90;;;;;;;20.77;45.57;99925.50;4955629;29;20054;-66
2022/09/26 09:38:38;;;;;;;5.47;1.20;;;;;;;20.68;45.12;99921.34;4955371;29;20051;-66
2022/09/26 09:41:10;;;;;;;3.75;0.50;;;;;;;20.68;45.08;99924.06;4954287;28;20033;-66
2022/09/26 09:43:35;;;;;;;4.57;0.75;;;;;;;20.68;45.22;99934.97;4955382;29;20035;-66
2022/09/26 09:46:04;;;;;;;1.77;0.70;;;;;;;20.71;45.12;99923.63;4956503;28;20082;-66
2022/09/26 09:48:30;;;;;;;1.45;0.80;;;;;;;20.73;45.58;99913.38;4939131;29;20481;-66
2022/09/26 09:51:10;;;;;;;7.15;1.00;;;;;;;20.85;45.40;99927.97;4956360;28;20037;-66
2022/09/26 09:53:53;;;;;;;2.40;0.77;;;;;;;20.88;45.16;99919.38;4955248;29;20380;-66
2022/09/26 09:56:35;;;;;;;2.63;0.73;;;;;;;21.01;44.78;99921.16;4955084;29;20051;-66
2022/09/26 09:59:19;;;;;;;1.70;0.63;;;;;;;21.06;45.16;99916.72;4954989;28;20031;-66
2022/09/26 10:01:47;;;;;;;6.43;0.70;;;;;;;21.21;44.85;99900.97;4956142;28;20361;-66
2022/09/26 10:04:19;;;;;;;3.25;0.70;;;;;;;21.40;44.94;99899.97;4938709;29;20051;-66
2022/09/26 10:06:45;;;;;;;3.17;0.90;;;;;;;21.54;44.53;99889.78;4954953;28;20420;-66
2022/09/26 10:09:17;;;;;;;5.45;0.90;;;;;;;21.74;44.25;99881.41;4954816;29;20023;-66
2022/09/26 10:11:42;;;;;;;1.03;0.50;;;;;;;21.94;43.94;99873.91;4954844;29;20057;-66
2022/09/26 10:14:26;;;;;;;3.05;0.75;;;;;;;22.13;43.81;99859.22;4938699;29;20047;-66
2022/09/26 10:17:10;;;;;;;4.68;0.75;;;;;;;22.46;43.06;99865.09;4938859;29;20077;-67
2022/09/26 10:19:38;;;;;;;1.63;0.70;;;;;;;22.58;43.64;99859.69;4954508;28;20023;-66
2022/09/26 10:22:08;;;;;;;2.45;0.60;;;;;;;22.57;43.02;99864.31;4939533;29;20028;-68
2022/09/26 10:24:42;;;;;;;1.42;0.75;;;;;;;22.49;43.00;99855.63;4956933;29;20388;-66
2022/09/26 10:27:17;;;;;;;1.48;0.70;;;;;;;22.44;43.16;99850.00;4955813;29;20082;-67
2022/09/26 10:29:43;;;;;;;1.23;0.73;;;;;;;22.36;43.94;99845.69;4958209;29;20110;-66
2022/09/26 10:32:09;;;;;;;1.15;0.73;;;;;;;22.31;43.21;99831.91;4962194;29;20066;-66
2022/09/26 10:34:37;;;;;;;2.50;0.80;;;;;;;22.35;43.21;99816.75;4943470;29;20027;-66
2022/09/26 10:37:28;;;;;;;3.63;0.90;;;;;;;22.52;43.59;99817.78;4962001;28;20098;-67
2022/09/26 10:42:40;;;;;;;7.57;0.45;;;;;;;22.53;43.75;99811.22;4961869;29;20070;-66
2022/09/26 10:45:16;;;;;;;6.93;1.02;;;;;;;22.45;43.86;99806.09;4929920;29;20031;-66
2022/09/26 10:47:46;;;;;;;1.65;0.50;;;;;;;22.47;43.04;99809.41;4963129;29;20069;-66
2022/09/26 10:50:15;;;;;;;2.63;1.00;;;;;;;22.49;43.13;99801.84;4962883;29;20031;-66
2022/09/26 10:52:45;;;;;;;1.83;0.95;;;;;;;22.50;42.79;99798.03;4945943;29;20469;-66
2022/09/26 10:55:43;;;;;;;2.30;0.55;;;;;;;22.47;42.96;99787.59;4946894;29;20505;-66
2022/09/26 10:58:16;;;;;;;3.50;0.60;;;;;;;22.43;42.86;99791.84;4953824;29;20042;-66
2022/09/26 11:00:48;;;;;;;4.63;0.65;;;;;;;22.43;42.98;99771.91;4961821;29;20023;-66
2022/09/26 11:03:15;;;;;;;3.50;1.00;;;;;;;22.43;42.43;99782.84;4961488;28;20059;-66
2022/09/26 11:06:00;;;;;;;1.20;0.50;;;;;;;22.40;42.76;99781.41;4945815;29;20031;-67
2022/09/26 11:08:29;;;;;;;3.55;0.90;;;;;;;22.39;42.90;99771.53;4962683;29;20051;-67
2022/09/26 11:10:56;;;;;;;0.80;0.45;;;;;;;22.45;42.87;99773.34;4959371;29;20444;-68
2022/09/26 11:13:23;;;;;;;1.60;0.52;;;;;;;22.55;42.85;99764.59;4958597;29;20023;-68
2022/09/26 11:16:08;;;;;;;1.75;0.68;;;;;;;22.76;43.04;99768.72;4940713;29;20026;-68
2022/09/26 11:18:52;;;;;;;5.35;0.73;;;;;;;22.78;42.06;99766.59;4956742;29;20429;-67
2022/09/26 11:21:20;;;;;;;1.30;0.50;;;;;;;22.68;42.36;99777.25;4957241;28;20027;-68
2022/09/26 11:23:52;;;;;;;4.32;1.13;;;;;;;22.50;43.60;99786.31;4956195;29;20023;-67
2022/09/26 11:26:26;;;;;;;3.60;0.98;;;;;;;22.30;42.68;99770.22;4955334;29;20464;-68
2022/09/26 11:29:02;;;;;;;1.55;0.80;;;;;;;22.16;43.16;99778.81;4939500;29;20027;-68
2022/09/26 11:31:41;;;;;;;2.08;1.25;;;;;;;22.00;43.60;99758.44;4956922;29;20055;-67
2022/09/26 11:34:12;;;;;;;1.08;0.57;;;;;;;21.96;43.00;99762.69;4943670;29;20031;-67
2022/09/26 11:37:00;;;;;;;2.22;0.60;;;;;;;21.95;43.38;99750.09;4959496;29;20030;-67
2022/09/26 11:39:44;;;;;;;2.47;0.85;;;;;;;22.05;43.77;99755.88;4945594;29;20464;-67
2022/09/26 11:42:15;;;;;;;3.22;0.70;;;;;;;22.14;43.09;99754.47;4962992;28;20106;-68
2022/09/26 11:44:57;;;;;;;2.70;0.60;;;;;;;22.24;43.76;99749.31;4962593;28;20027;-67
2022/09/26 11:47:22;;;;;;;2.05;0.80;;;;;;;22.30;43.73;99742.94;4961767;29;20023;-67
2022/09/26 11:50:06;;;;;;;1.42;0.80;;;;;;;22.31;43.35;99733.66;4961324;28;20100;-67
2022/09/26 11:52:53;;;;;;;1.65;0.80;;;;;;;22.40;43.82;99736.91;4959858;29;20020;-67
2022/09/26 11:55:19;;;;;;;5.95;0.80;;;;;;;22.48;43.11;99729.22;4959657;28;20030;-67